createdAt,value
2018-08-13T00:00:32.260Z,4.17
2018-08-13T00:03:05.633Z,3.07
2018-08-13T00:05:40.638Z,4.50
2018-08-13T00:08:14.974Z,3.70
2018-08-13T00:10:50.011Z,4.67
2018-08-13T00:13:23.784Z,3.97
2018-08-13T00:15:56.994Z,3.77
2018-08-13T00:18:39.231Z,4.00
2018-08-13T00:21:16.769Z,4.83
2018-08-13T00:23:50.831Z,4.27
2018-08-13T00:26:25.870Z,3.30
2018-08-13T00:29:01.679Z,5.60
2018-08-13T00:31:36.122Z,4.40
2018-08-13T00:34:11.173Z,7.80
2018-08-13T00:36:44.962Z,5.20
2018-08-13T00:39:24.821Z,5.13
2018-08-13T00:41:59.319Z,4.03
2018-08-13T00:44:33.451Z,4.00
2018-08-13T00:47:11.916Z,7.67
2018-08-13T00:49:49.682Z,5.73
2018-08-13T00:52:37.705Z,7.43
2018-08-13T00:55:14.862Z,4.40
2018-08-13T00:57:48.438Z,3.63
2018-08-13T01:00:23.337Z,5.87
2018-08-13T01:02:57.809Z,4.03
2018-08-13T01:05:35.831Z,3.10
2018-08-13T01:08:09.232Z,7.27
2018-08-13T01:10:44.875Z,4.03
2018-08-13T01:13:21.547Z,5.50
2018-08-13T01:15:55.397Z,4.43
2018-08-13T01:18:29.345Z,5.40
2018-08-13T01:21:04.774Z,5.23
2018-08-13T01:23:39.784Z,6.87
2018-08-13T01:26:15.058Z,6.37
2018-08-13T01:28:49.701Z,4.40
2018-08-13T01:31:23.239Z,6.40
2018-08-13T01:33:57.073Z,5.20
2018-08-13T01:36:30.965Z,6.57
2018-08-13T01:39:04.557Z,9.77
2018-08-13T01:41:38.186Z,6.57
2018-08-13T01:44:12.256Z,8.23
2018-08-13T01:46:46.209Z,9.77
2018-08-13T01:49:19.650Z,9.30
2018-08-13T01:51:54.475Z,6.27
2018-08-13T01:54:28.454Z,6.33
2018-08-13T01:57:06.814Z,6.13
2018-08-13T01:59:40.222Z,5.63
2018-08-13T02:02:14.817Z,7.43
2018-08-13T02:04:49.368Z,5.13
2018-08-13T02:07:23.665Z,5.60
2018-08-13T02:09:57.896Z,7.63
2018-08-13T02:12:32.169Z,9.53
2018-08-13T02:15:06.618Z,8.33
2018-08-13T02:17:42.790Z,8.63
2018-08-13T02:20:18.108Z,8.53
2018-08-13T02:22:52.024Z,8.83
2018-08-13T02:25:27.571Z,5.70
2018-08-13T02:28:01.061Z,6.83
2018-08-13T02:30:34.317Z,8.60
2018-08-13T02:33:07.695Z,6.83
2018-08-13T02:35:43.571Z,7.60
2018-08-13T02:38:18.684Z,6.87
2018-08-13T02:40:52.856Z,5.37
2018-08-13T02:43:26.247Z,8.00
2018-08-13T02:46:00.434Z,6.23
2018-08-13T02:48:34.860Z,6.27
2018-08-13T02:51:09.080Z,6.87
2018-08-13T02:53:43.640Z,7.63
2018-08-13T02:56:18.464Z,4.23
2018-08-13T02:58:51.877Z,10.57
2018-08-13T03:01:25.539Z,6.97
2018-08-13T03:03:59.536Z,7.43
2018-08-13T03:06:33.762Z,4.90
2018-08-13T03:09:11.526Z,5.90
2018-08-13T03:11:45.726Z,8.07
2018-08-13T03:14:19.080Z,9.43
2018-08-13T03:16:54.173Z,4.93
2018-08-13T03:19:27.439Z,9.73
2018-08-13T03:22:00.917Z,8.60
2018-08-13T03:24:34.463Z,6.47
2018-08-13T03:27:09.889Z,7.47
2018-08-13T03:29:45.177Z,8.43
2018-08-13T03:32:19.408Z,6.63
2018-08-13T03:34:54.806Z,5.13
2018-08-13T03:37:29.591Z,6.77
2018-08-13T03:40:03.017Z,9.70
2018-08-13T03:42:40.920Z,5.50
2018-08-13T03:45:16.109Z,7.70
2018-08-13T03:47:52.415Z,7.67
2018-08-13T03:50:28.960Z,6.70
2018-08-13T03:53:02.379Z,8.73
2018-08-13T03:55:38.034Z,8.07
2018-08-13T03:58:12.991Z,9.23
2018-08-13T04:00:47.884Z,10.63
2018-08-13T04:03:21.248Z,8.00
2018-08-13T04:05:54.664Z,5.93
2018-08-13T04:08:30.244Z,9.17
2018-08-13T04:11:04.989Z,8.17
2018-08-13T04:13:39.118Z,5.37
2018-08-13T04:16:16.765Z,8.50
2018-08-13T04:18:50.019Z,6.37
2018-08-13T04:21:23.351Z,10.03
2018-08-13T04:23:56.865Z,5.70
2018-08-13T04:26:31.060Z,8.33
2018-08-13T04:29:04.596Z,8.70
2018-08-13T04:31:41.622Z,5.23
2018-08-13T04:34:16.079Z,4.10
2018-08-13T04:36:50.365Z,6.73
2018-08-13T04:39:27.391Z,6.90
2018-08-13T04:42:03.487Z,5.63
2018-08-13T04:44:43.088Z,7.73
2018-08-13T04:47:16.701Z,6.83
2018-08-13T04:49:51.459Z,6.33
2018-08-13T04:52:24.487Z,7.13
2018-08-13T04:55:03.830Z,6.20
2018-08-13T04:57:40.487Z,8.07
2018-08-13T05:00:23.872Z,5.87
2018-08-13T05:02:59.449Z,4.73
2018-08-13T05:05:42.032Z,5.17
2018-08-13T05:08:21.997Z,3.27
2018-08-13T05:10:59.905Z,5.00
2018-08-13T05:16:20.832Z,4.70
2018-08-13T05:18:56.184Z,5.17
2018-08-13T05:21:36.789Z,4.97
2018-08-13T05:24:10.917Z,5.40
2018-08-13T05:26:51.414Z,5.93
2018-08-13T05:29:25.902Z,4.83
2018-08-13T05:31:59.414Z,4.00
2018-08-13T05:34:33.275Z,4.13
2018-08-13T05:37:07.058Z,3.70
2018-08-13T05:39:41.209Z,4.77
2018-08-13T05:42:14.990Z,3.57
2018-08-13T05:44:48.467Z,3.67
2018-08-13T05:47:23.269Z,5.90
2018-08-13T05:49:59.326Z,5.10
2018-08-13T05:52:35.224Z,3.53
2018-08-13T05:55:10.631Z,2.80
2018-08-13T05:57:44.393Z,3.47
2018-08-13T06:00:19.566Z,3.53
2018-08-13T06:03:01.383Z,5.10
2018-08-13T06:05:36.022Z,3.23
2018-08-13T06:08:26.450Z,5.87
2018-08-13T06:11:04.003Z,3.80
2018-08-13T06:13:37.648Z,3.60
2018-08-13T06:16:11.028Z,4.40
2018-08-13T06:18:46.078Z,3.97
2018-08-13T06:21:19.283Z,3.80
2018-08-13T06:23:53.109Z,2.77
2018-08-13T06:26:33.761Z,5.90
2018-08-13T06:29:19.074Z,4.23
2018-08-13T06:31:58.858Z,3.53
2018-08-13T06:34:36.007Z,2.80
2018-08-13T06:37:11.246Z,4.30
2018-08-13T06:39:46.380Z,3.20
2018-08-13T06:42:24.367Z,4.03
2018-08-13T06:45:06.415Z,4.53
2018-08-13T06:47:41.291Z,6.33
2018-08-13T06:50:20.702Z,2.80
2018-08-13T06:52:59.060Z,6.37
2018-08-13T06:55:32.632Z,3.73
2018-08-13T06:58:07.838Z,5.70
2018-08-13T07:00:46.451Z,4.27
2018-08-13T07:03:25.430Z,5.00
2018-08-13T07:06:09.436Z,5.53
2018-08-13T07:08:50.510Z,3.77
2018-08-13T07:11:27.718Z,5.57
2018-08-13T07:14:01.850Z,7.63
2018-08-13T07:16:34.994Z,5.10
2018-08-13T07:19:08.693Z,8.03
2018-08-13T07:21:43.802Z,3.60
2018-08-13T07:24:20.136Z,5.93
2018-08-13T07:26:54.129Z,4.73
2018-08-13T07:29:29.261Z,4.23
2018-08-13T07:32:02.649Z,5.30
2018-08-13T07:34:36.711Z,5.17
2018-08-13T07:37:09.978Z,4.40
2018-08-13T07:39:44.050Z,5.53
2018-08-13T07:42:17.708Z,5.33
2018-08-13T07:44:52.217Z,5.30
2018-08-13T14:35:50.361Z,7.23
2018-08-13T14:38:24.763Z,9.10
2018-08-13T14:41:01.377Z,11.77
2018-08-13T14:43:35.294Z,8.23
2018-08-13T14:46:09.811Z,10.67
2018-08-13T14:48:43.305Z,11.67
2018-08-13T14:51:17.780Z,11.67
2018-08-13T14:53:53.244Z,9.70
2018-08-13T14:56:27.220Z,9.17
2018-08-13T14:59:02.443Z,10.83
2018-08-13T15:01:36.635Z,8.57
2018-08-13T15:04:11.299Z,8.47
2018-08-13T15:06:45.649Z,14.90
2018-08-13T15:09:19.651Z,12.67
2018-08-13T15:11:52.969Z,10.77
2018-08-13T15:14:27.216Z,9.10
2018-08-13T15:17:02.921Z,10.43
2018-08-13T15:19:36.275Z,10.87
2018-08-13T15:22:10.394Z,9.47
2018-08-13T15:24:43.700Z,13.10
2018-08-13T15:27:17.011Z,14.27
2018-08-13T15:29:50.476Z,8.93
2018-08-13T15:32:28.439Z,14.57
2018-08-13T15:35:02.867Z,12.13
2018-08-13T15:37:38.708Z,10.20
2018-08-13T15:40:14.879Z,11.47
2018-08-13T15:42:48.246Z,10.50
2018-08-13T15:45:25.330Z,11.40
2018-08-13T15:47:58.300Z,12.23
2018-08-13T15:50:32.611Z,11.27
2018-08-13T15:53:06.483Z,13.43
2018-08-13T15:55:40.607Z,9.60
2018-08-13T15:58:14.008Z,10.47
2018-08-13T16:00:47.822Z,12.17
2018-08-13T16:03:21.340Z,12.17
2018-08-13T16:05:54.574Z,10.60
2018-08-13T16:08:28.063Z,8.37
2018-08-13T16:11:01.702Z,11.00
2018-08-13T16:13:35.050Z,8.07
2018-08-13T16:16:08.756Z,10.90
2018-08-13T16:18:42.742Z,9.27
2018-08-13T16:21:17.395Z,11.23
2018-08-13T16:23:55.523Z,12.17
2018-08-13T16:26:28.908Z,11.30
2018-08-13T16:29:02.274Z,10.93
2018-08-13T16:31:35.538Z,17.77
2018-08-13T16:34:09.379Z,11.40
2018-08-13T16:36:43.538Z,13.53
2018-08-13T16:39:16.876Z,13.47
2018-08-13T16:41:51.027Z,12.10
2018-08-13T16:44:24.944Z,12.83
2018-08-13T16:46:59.758Z,12.60
2018-08-13T16:49:34.468Z,11.40
2018-08-13T16:52:07.774Z,13.70
2018-08-13T16:54:43.234Z,14.20
2018-08-13T16:57:18.130Z,15.73
2018-08-13T16:59:51.366Z,16.60
2018-08-13T17:02:33.237Z,15.07
2018-08-13T17:05:11.239Z,15.40
2018-08-13T17:07:46.573Z,16.57
2018-08-13T17:10:30.358Z,13.77
2018-08-13T17:13:03.758Z,14.50
2018-08-13T17:15:37.070Z,12.57
2018-08-13T17:18:11.095Z,13.10
2018-08-13T17:20:46.939Z,14.47
2018-08-13T17:23:20.446Z,15.93
2018-08-13T17:25:53.687Z,12.53
2018-08-13T17:28:27.378Z,14.63
2018-08-13T17:31:01.335Z,15.07
2018-08-13T17:33:34.795Z,11.80
2018-08-13T17:36:08.744Z,13.17
2018-08-13T17:38:42.184Z,16.50
2018-08-13T17:41:20.251Z,16.27
2018-08-13T17:43:54.753Z,17.23
2018-08-13T17:46:28.573Z,18.20
2018-08-13T17:49:02.360Z,15.93
2018-08-13T17:51:37.226Z,16.37
2018-08-13T17:54:11.881Z,16.83
2018-08-13T17:56:46.719Z,18.03
2018-08-13T17:59:21.577Z,20.47
2018-08-13T18:01:54.972Z,17.90
2018-08-13T18:04:33.465Z,19.27
2018-08-13T18:07:08.021Z,20.87
2018-08-13T18:09:48.112Z,19.83
2018-08-13T18:12:21.716Z,19.07
2018-08-13T18:14:56.524Z,18.67
2018-08-13T18:17:29.839Z,23.13
2018-08-13T18:20:03.174Z,22.20
2018-08-13T18:22:36.502Z,20.70
2018-08-13T18:25:11.507Z,21.30
2018-08-13T18:27:48.306Z,17.27
2018-08-13T18:30:27.367Z,23.43
2018-08-13T18:33:00.852Z,21.33
2018-08-13T18:35:34.205Z,21.17
2018-08-13T18:38:08.719Z,23.47
2018-08-13T18:40:43.833Z,25.87
2018-08-13T18:43:22.211Z,21.23
2018-08-13T18:45:55.648Z,24.03
2018-08-13T18:48:31.352Z,26.53
2018-08-13T18:51:09.664Z,24.83
2018-08-13T18:53:44.059Z,24.20
2018-08-13T18:56:17.438Z,24.63
2018-08-13T18:58:51.671Z,25.33
2018-08-13T19:01:39.329Z,31.23
2018-08-13T19:04:12.687Z,27.30
2018-08-13T19:06:46.580Z,27.20
2018-08-13T19:09:23.694Z,27.17
2018-08-13T19:11:57.749Z,27.13
2018-08-13T19:14:31.320Z,28.70
2018-08-13T19:17:05.051Z,24.70
2018-08-13T19:19:41.882Z,29.30
2018-08-13T19:22:19.057Z,25.73
2018-08-13T19:24:52.562Z,27.97
2018-08-13T19:27:25.972Z,31.90
2018-08-13T19:30:01.275Z,28.63
2018-08-13T19:32:34.621Z,29.10
2018-08-13T19:35:12.698Z,28.70
2018-08-13T19:37:47.244Z,27.87
2018-08-13T19:40:23.710Z,27.47
2018-08-13T19:42:58.638Z,28.30
2018-08-13T19:45:35.014Z,30.70
2018-08-13T19:48:08.862Z,29.73
2018-08-13T19:50:42.848Z,29.67
2018-08-13T19:53:18.757Z,30.60
2018-08-13T19:55:53.682Z,30.93
2018-08-13T19:58:28.158Z,30.17
2018-08-13T20:01:01.679Z,32.87
2018-08-13T20:03:35.051Z,33.73
2018-08-13T20:06:08.626Z,32.63
2018-08-13T20:08:46.128Z,32.37
2018-08-13T20:11:19.626Z,36.33
2018-08-13T20:13:58.469Z,32.17
2018-08-13T20:16:34.011Z,36.47
2018-08-13T20:19:07.305Z,37.23
2018-08-13T20:21:41.894Z,36.07
2018-08-13T20:24:15.351Z,39.20
2018-08-13T20:26:49.385Z,38.30
2018-08-13T20:29:25.125Z,39.53
2018-08-13T20:32:04.381Z,36.07
2018-08-13T20:34:42.644Z,36.17
2018-08-13T20:37:16.247Z,37.93
2018-08-13T20:39:50.738Z,40.97
2018-08-13T20:42:24.672Z,42.67
2018-08-13T20:45:12.696Z,41.60
2018-08-13T20:47:47.136Z,45.67
2018-08-13T20:50:23.276Z,50.03
2018-08-13T20:52:57.155Z,44.73
2018-08-13T20:55:32.412Z,46.77
2018-08-13T20:58:05.695Z,46.53
2018-08-13T21:00:41.725Z,49.30
2018-08-13T21:03:18.256Z,52.07
2018-08-13T21:05:52.205Z,52.50
2018-08-13T21:08:29.350Z,55.13
2018-08-13T21:11:04.603Z,51.60
2018-08-13T21:13:37.996Z,53.47
2018-08-13T21:16:18.191Z,52.93
2018-08-13T21:18:58.936Z,53.33
2018-08-13T21:21:32.544Z,51.97
2018-08-13T21:24:10.076Z,53.17
2018-08-13T21:26:43.448Z,51.67
2018-08-13T21:29:16.887Z,49.93
2018-08-13T21:31:52.990Z,51.90
2018-08-13T21:34:27.242Z,48.57
2018-08-13T21:37:01.634Z,44.87
2018-08-13T21:39:34.944Z,40.90
2018-08-13T21:42:09.635Z,42.40
2018-08-13T21:44:42.987Z,41.67
2018-08-13T21:47:17.843Z,39.83
2018-08-13T21:49:51.625Z,43.67
2018-08-13T21:52:26.130Z,42.27
2018-08-13T21:55:03.411Z,41.40
2018-08-13T21:57:40.862Z,44.23
2018-08-13T22:00:22.836Z,48.47
2018-08-13T22:02:57.227Z,49.97
2018-08-13T22:05:30.761Z,50.50
2018-08-13T22:08:04.475Z,52.17
2018-08-13T22:10:38.485Z,53.80
2018-08-13T22:13:11.829Z,57.30
2018-08-13T22:15:47.148Z,58.00
2018-08-13T22:18:20.661Z,57.43
2018-08-13T22:20:54.736Z,60.67
2018-08-13T22:23:28.795Z,62.40
2018-08-13T22:26:02.680Z,63.23
2018-08-13T22:28:35.987Z,60.27
2018-08-13T22:31:09.663Z,61.73
2018-08-13T22:33:42.886Z,59.80
2018-08-13T22:36:17.260Z,60.63
2018-08-13T22:38:50.640Z,68.90
2018-08-13T22:41:25.811Z,66.03
2018-08-13T22:44:00.747Z,62.07
2018-08-13T22:46:34.694Z,64.67
2018-08-13T22:49:09.969Z,63.60
2018-08-13T22:51:43.332Z,61.37
2018-08-13T22:54:17.583Z,60.23
2018-08-13T22:56:54.351Z,67.60
2018-08-13T22:59:27.800Z,66.10
2018-08-13T23:02:01.011Z,64.87
2018-08-13T23:04:34.525Z,61.63
2018-08-13T23:07:11.012Z,67.40
2018-08-13T23:09:44.966Z,64.00
2018-08-13T23:12:27.684Z,68.00
2018-08-13T23:15:02.878Z,66.87
2018-08-13T23:17:36.179Z,65.17
2018-08-13T23:20:12.060Z,67.77
2018-08-13T23:22:53.960Z,69.87
2018-08-13T23:25:27.634Z,65.33
2018-08-13T23:28:03.342Z,64.97
2018-08-13T23:30:37.224Z,65.23
2018-08-13T23:33:12.799Z,67.00
2018-08-13T23:35:48.009Z,67.93
2018-08-13T23:38:28.112Z,68.53
2018-08-13T23:41:04.480Z,70.00
2018-08-13T23:43:38.111Z,72.53
2018-08-13T23:46:12.008Z,67.90
2018-08-13T23:48:47.127Z,71.93
2018-08-13T23:51:22.854Z,71.90
2018-08-13T23:53:56.993Z,71.83
2018-08-13T23:56:31.460Z,76.10
2018-08-13T23:59:05.596Z,75.33
